sensor_id;sensor_type;location;lat;lon;timestamp;pressure;altitude;pressure_sealevel;temperature;humidity
52651;BME280;38537;47.226;39.702;2023-02-28T00:01:32;100925.19;;;12.23;54.29
52651;BME280;38537;47.226;39.702;2023-02-28T00:04:02;100952.75;;;12.49;53.83
52651;BME280;38537;47.226;39.702;2023-02-28T00:06:30;100935.34;;;12.65;53.08
52651;BME280;38537;47.226;39.702;2023-02-28T00:08:57;100937.28;;;12.97;52.89
52651;BME280;38537;47.226;39.702;2023-02-28T00:11:24;100929.72;;;13.25;51.98
52651;BME280;38537;47.226;39.702;2023-02-28T00:13:52;100925.25;;;13.24;52.32
52651;BME280;38537;47.226;39.702;2023-02-28T00:16:21;100938.66;;;13.41;52.22
52651;BME280;38537;47.226;39.702;2023-02-28T00:18:49;100940.84;;;13.30;52.56
52651;BME280;38537;47.226;39.702;2023-02-28T00:21:18;100942.28;;;13.28;52.91
52651;BME280;38537;47.226;39.702;2023-02-28T00:23:45;100936.66;;;13.55;52.19
52651;BME280;38537;47.226;39.702;2023-02-28T00:26:15;100930.56;;;13.76;51.46
52651;BME280;38537;47.226;39.702;2023-02-28T00:28:46;100929.94;;;13.79;51.02
52651;BME280;38537;47.226;39.702;2023-02-28T00:31:13;100916.56;;;13.98;50.57
52651;BME280;38537;47.226;39.702;2023-02-28T00:33:41;100936.69;;;14.14;50.44
52651;BME280;38537;47.226;39.702;2023-02-28T00:36:10;100919.31;;;13.89;50.53
52651;BME280;38537;47.226;39.702;2023-02-28T00:38:38;100931.44;;;13.62;51.16
52651;BME280;38537;47.226;39.702;2023-02-28T00:41:07;100938.00;;;13.58;51.32
52651;BME280;38537;47.226;39.702;2023-02-28T00:43:36;100934.47;;;13.52;51.78
52651;BME280;38537;47.226;39.702;2023-02-28T00:46:03;100927.91;;;13.57;51.50
52651;BME280;38537;47.226;39.702;2023-02-28T00:48:31;100936.63;;;13.69;51.64
52651;BME280;38537;47.226;39.702;2023-02-28T00:50:59;100934.25;;;13.62;51.70
52651;BME280;38537;47.226;39.702;2023-02-28T00:53:27;100924.63;;;13.41;52.09
52651;BME280;38537;47.226;39.702;2023-02-28T00:55:56;100942.09;;;13.38;52.25
52651;BME280;38537;47.226;39.702;2023-02-28T00:58:26;100953.41;;;13.33;52.63
52651;BME280;38537;47.226;39.702;2023-02-28T01:00:54;100942.09;;;13.38;52.20
52651;BME280;38537;47.226;39.702;2023-02-28T01:03:21;100939.81;;;13.40;52.55
52651;BME280;38537;47.226;39.702;2023-02-28T01:05:50;100921.59;;;13.10;53.09
52651;BME280;38537;47.226;39.702;2023-02-28T01:08:17;100944.56;;;13.26;52.36
52651;BME280;38537;47.226;39.702;2023-02-28T01:10:45;100936.84;;;13.45;52.01
52651;BME280;38537;47.226;39.702;2023-02-28T01:13:12;100927.31;;;13.46;52.18
52651;BME280;38537;47.226;39.702;2023-02-28T01:15:42;100939.34;;;13.60;52.16
52651;BME280;38537;47.226;39.702;2023-02-28T01:18:11;100930.09;;;13.60;51.94
52651;BME280;38537;47.226;39.702;2023-02-28T01:20:38;100932.91;;;13.60;51.73
52651;BME280;38537;47.226;39.702;2023-02-28T01:23:06;100929.41;;;13.41;52.53
52651;BME280;38537;47.226;39.702;2023-02-28T01:25:37;100954.06;;;13.80;51.51
52651;BME280;38537;47.226;39.702;2023-02-28T01:28:05;100957.50;;;13.77;51.41
52651;BME280;38537;47.226;39.702;2023-02-28T01:30:33;100934.63;;;13.69;51.87
52651;BME280;38537;47.226;39.702;2023-02-28T01:33:01;100924.69;;;13.63;51.66
52651;BME280;38537;47.226;39.702;2023-02-28T01:35:32;100882.78;;;13.67;51.30
52651;BME280;38537;47.226;39.702;2023-02-28T01:38:00;100899.91;;;13.79;51.06
52651;BME280;38537;47.226;39.702;2023-02-28T01:40:46;100942.75;;;14.07;50.66
52651;BME280;38537;47.226;39.702;2023-02-28T01:46:20;100931.22;;;13.72;51.57
52651;BME280;38537;47.226;39.702;2023-02-28T01:51:46;100934.31;;;13.85;51.68
52651;BME280;38537;47.226;39.702;2023-02-28T01:54:27;100945.75;;;13.75;51.60
52651;BME280;38537;47.226;39.702;2023-02-28T01:57:05;100933.22;;;13.45;52.23
52651;BME280;38537;47.226;39.702;2023-02-28T02:02:13;100942.16;;;13.05;52.94
52651;BME280;38537;47.226;39.702;2023-02-28T02:05:04;100940.41;;;12.96;53.39
52651;BME280;38537;47.226;39.702;2023-02-28T02:07:37;100942.41;;;12.63;54.22
52651;BME280;38537;47.226;39.702;2023-02-28T02:10:15;100955.56;;;12.49;54.27
52651;BME280;38537;47.226;39.702;2023-02-28T02:15:19;100949.09;;;12.16;55.52
52651;BME280;38537;47.226;39.702;2023-02-28T02:17:52;100955.53;;;12.16;55.72
52651;BME280;38537;47.226;39.702;2023-02-28T02:26:14;100934.56;;;12.14;55.13
52651;BME280;38537;47.226;39.702;2023-02-28T02:31:58;100957.47;;;12.34;55.11
52651;BME280;38537;47.226;39.702;2023-02-28T02:34:37;100965.50;;;12.22;54.83
52651;BME280;38537;47.226;39.702;2023-02-28T02:45:15;100949.47;;;12.28;54.70
52651;BME280;38537;47.226;39.702;2023-02-28T02:47:44;100948.81;;;12.50;54.28
52651;BME280;38537;47.226;39.702;2023-02-28T02:50:20;100947.69;;;11.81;55.75
52651;BME280;38537;47.226;39.702;2023-02-28T02:52:53;100939.25;;;11.62;56.02
52651;BME280;38537;47.226;39.702;2023-02-28T02:55:23;100941.22;;;11.61;56.36
52651;BME280;38537;47.226;39.702;2023-02-28T02:57:59;100935.22;;;11.49;56.47
52651;BME280;38537;47.226;39.702;2023-02-28T03:00:43;100927.00;;;11.39;56.96
52651;BME280;38537;47.226;39.702;2023-02-28T03:03:14;100921.94;;;11.41;56.25
52651;BME280;38537;47.226;39.702;2023-02-28T03:05:45;100949.84;;;11.65;56.18
52651;BME280;38537;47.226;39.702;2023-02-28T03:08:14;100922.31;;;11.53;56.26
52651;BME280;38537;47.226;39.702;2023-02-28T03:10:43;100956.94;;;11.57;56.82
52651;BME280;38537;47.226;39.702;2023-02-28T03:21:40;100954.19;;;11.10;57.78
52651;BME280;38537;47.226;39.702;2023-02-28T03:24:11;100952.59;;;11.04;57.94
52651;BME280;38537;47.226;39.702;2023-02-28T03:26:42;100953.25;;;10.95;58.03
52651;BME280;38537;47.226;39.702;2023-02-28T03:29:16;100960.72;;;10.76;58.32
52651;BME280;38537;47.226;39.702;2023-02-28T03:32:03;100955.91;;;10.53;59.79
52651;BME280;38537;47.226;39.702;2023-02-28T03:34:41;100960.53;;;10.39;60.19
52651;BME280;38537;47.226;39.702;2023-02-28T03:37:17;100968.97;;;10.28;60.31
52651;BME280;38537;47.226;39.702;2023-02-28T03:39:50;100950.13;;;10.10;60.53
52651;BME280;38537;47.226;39.702;2023-02-28T03:42:23;100959.91;;;10.08;60.50
52651;BME280;38537;47.226;39.702;2023-02-28T03:44:59;100961.34;;;10.00;61.28
52651;BME280;38537;47.226;39.702;2023-02-28T03:47:33;100977.22;;;10.05;61.45
52651;BME280;38537;47.226;39.702;2023-02-28T03:50:10;100978.34;;;9.98;61.58
52651;BME280;38537;47.226;39.702;2023-02-28T03:52:48;100961.00;;;9.68;61.91
52651;BME280;38537;47.226;39.702;2023-02-28T03:55:18;100953.31;;;9.49;61.66
52651;BME280;38537;47.226;39.702;2023-02-28T03:58:05;100981.13;;;9.59;63.21
52651;BME280;38537;47.226;39.702;2023-02-28T04:00:38;100968.38;;;9.48;62.72
52651;BME280;38537;47.226;39.702;2023-02-28T04:03:07;100983.69;;;9.46;62.45
52651;BME280;38537;47.226;39.702;2023-02-28T04:05:51;100963.19;;;9.21;64.00
52651;BME280;38537;47.226;39.702;2023-02-28T04:08:20;100971.84;;;9.10;62.82
52651;BME280;38537;47.226;39.702;2023-02-28T04:10:54;100971.31;;;9.03;64.00
52651;BME280;38537;47.226;39.702;2023-02-28T04:13:23;101002.97;;;9.32;63.34
52651;BME280;38537;47.226;39.702;2023-02-28T04:15:52;100976.28;;;9.11;63.45
52651;BME280;38537;47.226;39.702;2023-02-28T04:18:21;100955.19;;;9.00;63.44
52651;BME280;38537;47.226;39.702;2023-02-28T04:20:48;100952.41;;;8.94;63.47
52651;BME280;38537;47.226;39.702;2023-02-28T04:23:16;100979.06;;;9.26;63.47
52651;BME280;38537;47.226;39.702;2023-02-28T04:25:43;100982.31;;;9.43;63.01
52651;BME280;38537;47.226;39.702;2023-02-28T04:28:10;100966.78;;;9.27;62.70
52651;BME280;38537;47.226;39.702;2023-02-28T04:30:37;100966.50;;;9.23;62.96
52651;BME280;38537;47.226;39.702;2023-02-28T04:33:06;100965.06;;;9.36;62.91
52651;BME280;38537;47.226;39.702;2023-02-28T04:35:33;100981.69;;;9.56;62.78
52651;BME280;38537;47.226;39.702;2023-02-28T04:38:00;100958.09;;;9.39;62.66
52651;BME280;38537;47.226;39.702;2023-02-28T04:40:27;100944.97;;;9.44;62.50
52651;BME280;38537;47.226;39.702;2023-02-28T04:42:54;100967.53;;;9.43;61.96
52651;BME280;38537;47.226;39.702;2023-02-28T04:45:22;100973.97;;;9.38;62.77
52651;BME280;38537;47.226;39.702;2023-02-28T04:47:49;100956.16;;;9.34;62.82
52651;BME280;38537;47.226;39.702;2023-02-28T04:50:16;100955.09;;;9.20;62.64
52651;BME280;38537;47.226;39.702;2023-02-28T04:52:43;100968.63;;;9.52;62.54
52651;BME280;38537;47.226;39.702;2023-02-28T04:55:10;100944.38;;;9.47;62.16
52651;BME280;38537;47.226;39.702;2023-02-28T04:57:39;100966.88;;;9.61;62.37
52651;BME280;38537;47.226;39.702;2023-02-28T05:00:10;100974.69;;;9.59;62.23
52651;BME280;38537;47.226;39.702;2023-02-28T05:02:38;100947.19;;;9.42;62.42
52651;BME280;38537;47.226;39.702;2023-02-28T05:05:06;100970.34;;;9.43;62.72
52651;BME280;38537;47.226;39.702;2023-02-28T05:07:33;100972.84;;;9.44;62.59
52651;BME280;38537;47.226;39.702;2023-02-28T05:10:01;100987.22;;;9.67;62.39
52651;BME280;38537;47.226;39.702;2023-02-28T05:12:29;100975.56;;;9.98;61.75
52651;BME280;38537;47.226;39.702;2023-02-28T05:14:56;100972.09;;;10.22;60.81
52651;BME280;38537;47.226;39.702;2023-02-28T05:17:23;100974.31;;;10.20;60.90
52651;BME280;38537;47.226;39.702;2023-02-28T05:19:50;100983.31;;;10.12;60.95
52651;BME280;38537;47.226;39.702;2023-02-28T05:22:17;100999.53;;;10.05;61.56
52651;BME280;38537;47.226;39.702;2023-02-28T05:24:44;100974.13;;;10.06;61.03
52651;BME280;38537;47.226;39.702;2023-02-28T05:27:12;100985.81;;;10.13;61.61
52651;BME280;38537;47.226;39.702;2023-02-28T05:29:39;100981.91;;;10.14;61.20
52651;BME280;38537;47.226;39.702;2023-02-28T05:32:13;100980.69;;;10.30;61.42
52651;BME280;38537;47.226;39.702;2023-02-28T05:34:41;100996.56;;;10.35;60.85
52651;BME280;38537;47.226;39.702;2023-02-28T05:37:12;101007.81;;;10.20;61.68
52651;BME280;38537;47.226;39.702;2023-02-28T05:39:39;101006.19;;;10.14;61.63
52651;BME280;38537;47.226;39.702;2023-02-28T05:42:07;100994.22;;;10.08;62.01
52651;BME280;38537;47.226;39.702;2023-02-28T05:44:35;101017.34;;;10.14;62.04
52651;BME280;38537;47.226;39.702;2023-02-28T05:47:03;101003.03;;;9.81;62.57
52651;BME280;38537;47.226;39.702;2023-02-28T05:49:30;101015.31;;;9.80;62.87
52651;BME280;38537;47.226;39.702;2023-02-28T05:51:57;101026.19;;;9.77;62.88
52651;BME280;38537;47.226;39.702;2023-02-28T05:54:25;101023.41;;;9.77;63.38
52651;BME280;38537;47.226;39.702;2023-02-28T05:56:52;101036.88;;;9.54;63.39
52651;BME280;38537;47.226;39.702;2023-02-28T05:59:19;101009.66;;;9.31;63.78
52651;BME280;38537;47.226;39.702;2023-02-28T06:01:46;101018.00;;;9.41;64.13
52651;BME280;38537;47.226;39.702;2023-02-28T06:04:17;101046.16;;;9.45;64.20
52651;BME280;38537;47.226;39.702;2023-02-28T06:06:57;101037.72;;;9.55;64.05
52651;BME280;38537;47.226;39.702;2023-02-28T06:09:24;101028.94;;;9.27;63.77
52651;BME280;38537;47.226;39.702;2023-02-28T06:11:52;101052.56;;;9.35;63.95
52651;BME280;38537;47.226;39.702;2023-02-28T06:14:20;101034.25;;;9.14;64.48
52651;BME280;38537;47.226;39.702;2023-02-28T06:16:47;101047.06;;;9.15;64.34
52651;BME280;38537;47.226;39.702;2023-02-28T06:19:14;100971.34;;;8.92;64.43
52651;BME280;38537;47.226;39.702;2023-02-28T06:21:43;101012.75;;;9.30;64.08
52651;BME280;38537;47.226;39.702;2023-02-28T06:24:10;101029.75;;;9.28;63.78
52651;BME280;38537;47.226;39.702;2023-02-28T06:26:37;101033.63;;;9.37;63.93
52651;BME280;38537;47.226;39.702;2023-02-28T06:29:06;101020.31;;;9.19;63.80
52651;BME280;38537;47.226;39.702;2023-02-28T06:31:34;101026.72;;;9.14;64.25
52651;BME280;38537;47.226;39.702;2023-02-28T06:34:01;101015.53;;;9.30;63.78
52651;BME280;38537;47.226;39.702;2023-02-28T06:36:28;101023.22;;;9.58;63.45
52651;BME280;38537;47.226;39.702;2023-02-28T06:38:56;101019.72;;;9.27;63.28
52651;BME280;38537;47.226;39.702;2023-02-28T06:41:25;101026.03;;;9.53;63.46
52651;BME280;38537;47.226;39.702;2023-02-28T06:43:53;100999.50;;;9.60;63.01
52651;BME280;38537;47.226;39.702;2023-02-28T06:46:21;100996.00;;;9.89;61.99
52651;BME280;38537;47.226;39.702;2023-02-28T06:48:48;101008.75;;;10.00;61.85
52651;BME280;38537;47.226;39.702;2023-02-28T06:51:18;101012.66;;;9.99;62.02
52651;BME280;38537;47.226;39.702;2023-02-28T06:53:47;100991.81;;;10.36;60.94
52651;BME280;38537;47.226;39.702;2023-02-28T06:56:15;101006.03;;;10.68;60.62
52651;BME280;38537;47.226;39.702;2023-02-28T06:58:48;101010.75;;;11.02;59.72
52651;BME280;38537;47.226;39.702;2023-02-28T07:01:16;100999.78;;;11.05;59.24
52651;BME280;38537;47.226;39.702;2023-02-28T07:03:43;101001.06;;;11.18;59.14
52651;BME280;38537;47.226;39.702;2023-02-28T07:06:10;100983.44;;;10.93;58.82
52651;BME280;38537;47.226;39.702;2023-02-28T07:08:37;100989.16;;;10.49;59.58
52651;BME280;38537;47.226;39.702;2023-02-28T07:11:07;100995.31;;;10.51;60.38
52651;BME280;38537;47.226;39.702;2023-02-28T07:13:34;100989.13;;;10.54;59.93
52651;BME280;38537;47.226;39.702;2023-02-28T07:16:04;100998.13;;;10.46;60.24
52651;BME280;38537;47.226;39.702;2023-02-28T07:18:32;100986.22;;;10.36;60.22
52651;BME280;38537;47.226;39.702;2023-02-28T07:21:02;100994.50;;;10.46;60.39
52651;BME280;38537;47.226;39.702;2023-02-28T07:23:29;100992.78;;;10.50;60.18
52651;BME280;38537;47.226;39.702;2023-02-28T07:25:56;100985.94;;;10.66;60.19
52651;BME280;38537;47.226;39.702;2023-02-28T07:28:24;100995.03;;;10.48;60.10
52651;BME280;38537;47.226;39.702;2023-02-28T07:30:51;100989.75;;;10.46;60.39
52651;BME280;38537;47.226;39.702;2023-02-28T07:33:19;100993.88;;;10.54;60.48
52651;BME280;38537;47.226;39.702;2023-02-28T07:35:46;100999.47;;;10.54;60.41
52651;BME280;38537;47.226;39.702;2023-02-28T07:38:14;100995.44;;;10.36;60.19
52651;BME280;38537;47.226;39.702;2023-02-28T07:40:41;100974.59;;;10.23;60.69
52651;BME280;38537;47.226;39.702;2023-02-28T07:43:08;100971.25;;;10.21;60.63
52651;BME280;38537;47.226;39.702;2023-02-28T07:45:36;100987.72;;;10.23;60.75
52651;BME280;38537;47.226;39.702;2023-02-28T07:48:06;100987.66;;;10.28;60.83
52651;BME280;38537;47.226;39.702;2023-02-28T07:50:33;100986.31;;;10.20;60.90
52651;BME280;38537;47.226;39.702;2023-02-28T07:53:01;100993.81;;;10.30;60.59
52651;BME280;38537;47.226;39.702;2023-02-28T07:55:30;100982.50;;;10.45;60.53
52651;BME280;38537;47.226;39.702;2023-02-28T07:57:57;101002.34;;;10.44;60.51
52651;BME280;38537;47.226;39.702;2023-02-28T08:00:25;100979.66;;;10.16;60.55
52651;BME280;38537;47.226;39.702;2023-02-28T08:02:52;100958.91;;;9.93;60.95
52651;BME280;38537;47.226;39.702;2023-02-28T08:05:19;100993.38;;;10.08;61.18
52651;BME280;38537;47.226;39.702;2023-02-28T08:07:49;101007.28;;;9.74;61.71
52651;BME280;38537;47.226;39.702;2023-02-28T08:10:16;101017.91;;;9.61;62.24
52651;BME280;38537;47.226;39.702;2023-02-28T08:12:43;101031.59;;;9.53;62.49
52651;BME280;38537;47.226;39.702;2023-02-28T08:15:10;101003.50;;;9.44;63.35
52651;BME280;38537;47.226;39.702;2023-02-28T08:17:38;101022.75;;;9.41;63.34
52651;BME280;38537;47.226;39.702;2023-02-28T08:20:07;101026.72;;;9.19;63.52
52651;BME280;38537;47.226;39.702;2023-02-28T08:22:34;101023.16;;;8.93;64.21
52651;BME280;38537;47.226;39.702;2023-02-28T08:25:02;101015.66;;;8.74;65.04
52651;BME280;38537;47.226;39.702;2023-02-28T08:27:29;101027.34;;;8.81;65.33
52651;BME280;38537;47.226;39.702;2023-02-28T08:29:56;101007.31;;;8.74;65.80
52651;BME280;38537;47.226;39.702;2023-02-28T08:32:24;101019.56;;;8.83;65.60
52651;BME280;38537;47.226;39.702;2023-02-28T08:34:56;101025.41;;;8.86;65.88
52651;BME280;38537;47.226;39.702;2023-02-28T08:37:24;101019.28;;;8.74;65.87
52651;BME280;38537;47.226;39.702;2023-02-28T08:39:52;101021.75;;;8.91;65.65
52651;BME280;38537;47.226;39.702;2023-02-28T08:42:23;101032.09;;;8.85;66.01
52651;BME280;38537;47.226;39.702;2023-02-28T08:44:50;101038.50;;;8.55;66.39
52651;BME280;38537;47.226;39.702;2023-02-28T08:47:18;101023.44;;;8.67;66.69
52651;BME280;38537;47.226;39.702;2023-02-28T08:49:45;101045.16;;;8.70;66.56
52651;BME280;38537;47.226;39.702;2023-02-28T08:52:12;101041.00;;;8.52;66.83
52651;BME280;38537;47.226;39.702;2023-02-28T08:54:40;101040.38;;;8.09;67.87
52651;BME280;38537;47.226;39.702;2023-02-28T08:57:08;101027.84;;;8.07;68.36
52651;BME280;38537;47.226;39.702;2023-02-28T08:59:35;101057.59;;;8.06;69.02
52651;BME280;38537;47.226;39.702;2023-02-28T09:02:02;101066.00;;;8.32;69.21
52651;BME280;38537;47.226;39.702;2023-02-28T09:04:30;101061.00;;;8.18;69.08
52651;BME280;38537;47.226;39.702;2023-02-28T09:07:00;101044.03;;;8.30;68.76
52651;BME280;38537;47.226;39.702;2023-02-28T09:09:27;101017.91;;;8.41;68.30
52651;BME280;38537;47.226;39.702;2023-02-28T09:11:58;101056.88;;;8.62;68.49
52651;BME280;38537;47.226;39.702;2023-02-28T09:14:25;101048.81;;;8.55;67.83
52651;BME280;38537;47.226;39.702;2023-02-28T09:16:52;101052.69;;;8.59;67.94
52651;BME280;38537;47.226;39.702;2023-02-28T09:19:20;101054.94;;;8.57;67.84
52651;BME280;38537;47.226;39.702;2023-02-28T09:21:47;101059.94;;;8.40;68.09
52651;BME280;38537;47.226;39.702;2023-02-28T09:24:14;101037.91;;;8.18;68.87
52651;BME280;38537;47.226;39.702;2023-02-28T09:26:42;101039.28;;;8.25;69.24
52651;BME280;38537;47.226;39.702;2023-02-28T09:29:30;101044.50;;;8.02;69.11
52651;BME280;38537;47.226;39.702;2023-02-28T09:31:58;101060.38;;;8.06;69.35
52651;BME280;38537;47.226;39.702;2023-02-28T09:34:28;101062.31;;;7.96;70.10
52651;BME280;38537;47.226;39.702;2023-02-28T09:36:57;101053.41;;;8.04;70.40
52651;BME280;38537;47.226;39.702;2023-02-28T09:39:25;101050.94;;;8.12;70.29
52651;BME280;38537;47.226;39.702;2023-02-28T09:41:54;101047.59;;;8.10;70.01
52651;BME280;38537;47.226;39.702;2023-02-28T09:44:37;101050.13;;;8.17;71.04
52651;BME280;38537;47.226;39.702;2023-02-28T09:47:20;101060.88;;;7.78;71.14
52651;BME280;38537;47.226;39.702;2023-02-28T09:49:49;101020.56;;;7.80;70.83
52651;BME280;38537;47.226;39.702;2023-02-28T09:52:25;101022.78;;;7.83;71.50
52651;BME280;38537;47.226;39.702;2023-02-28T09:55:11;101035.91;;;7.93;70.92
52651;BME280;38537;47.226;39.702;2023-02-28T09:57:45;101036.16;;;8.02;70.83
52651;BME280;38537;47.226;39.702;2023-02-28T10:00:32;101042.03;;;8.10;71.59
52651;BME280;38537;47.226;39.702;2023-02-28T10:03:27;101058.41;;;7.91;71.74
52651;BME280;38537;47.226;39.702;2023-02-28T10:06:14;101035.06;;;7.98;72.89
52651;BME280;38537;47.226;39.702;2023-02-28T10:08:52;101027.25;;;7.84;71.72
52651;BME280;38537;47.226;39.702;2023-02-28T10:11:23;101042.47;;;7.67;71.63
52651;BME280;38537;47.226;39.702;2023-02-28T10:14:01;101045.88;;;7.84;73.00
52651;BME280;38537;47.226;39.702;2023-02-28T10:16:34;101055.63;;;8.02;71.77
52651;BME280;38537;47.226;39.702;2023-02-28T10:19:28;101054.56;;;8.13;72.91
52651;BME280;38537;47.226;39.702;2023-02-28T10:22:22;101045.38;;;8.12;72.50
52651;BME280;38537;47.226;39.702;2023-02-28T10:24:53;101035.66;;;8.10;71.58
52651;BME280;38537;47.226;39.702;2023-02-28T10:27:23;101048.34;;;7.80;71.08
52651;BME280;38537;47.226;39.702;2023-02-28T10:29:55;101061.84;;;7.46;72.22
52651;BME280;38537;47.226;39.702;2023-02-28T10:32:25;101059.47;;;7.18;73.22
52651;BME280;38537;47.226;39.702;2023-02-28T10:34:59;101048.38;;;6.76;74.13
52651;BME280;38537;47.226;39.702;2023-02-28T10:37:29;101040.16;;;6.54;74.74
52651;BME280;38537;47.226;39.702;2023-02-28T10:40:04;101021.03;;;6.58;75.56
52651;BME280;38537;47.226;39.702;2023-02-28T10:42:33;101023.59;;;6.64;75.91
52651;BME280;38537;47.226;39.702;2023-02-28T10:45:10;101040.56;;;6.68;75.53
52651;BME280;38537;47.226;39.702;2023-02-28T10:48:03;101035.16;;;6.88;76.73
52651;BME280;38537;47.226;39.702;2023-02-28T10:56:03;101047.25;;;6.40;75.45
52651;BME280;38537;47.226;39.702;2023-02-28T11:01:38;101051.91;;;6.34;75.61
52651;BME280;38537;47.226;39.702;2023-02-28T11:04:33;101053.84;;;6.34;77.12
52651;BME280;38537;47.226;39.702;2023-02-28T11:07:27;101051.19;;;6.17;76.43
52651;BME280;38537;47.226;39.702;2023-02-28T11:10:24;101037.38;;;5.95;76.20
52651;BME280;38537;47.226;39.702;2023-02-28T11:12:56;101050.94;;;5.92;76.79
52651;BME280;38537;47.226;39.702;2023-02-28T11:15:29;101047.63;;;5.95;76.76
52651;BME280;38537;47.226;39.702;2023-02-28T11:18:05;101026.88;;;5.97;76.87
52651;BME280;38537;47.226;39.702;2023-02-28T11:20:48;101045.44;;;6.24;76.87
52651;BME280;38537;47.226;39.702;2023-02-28T11:23:16;101044.59;;;6.55;75.82
52651;BME280;38537;47.226;39.702;2023-02-28T11:25:52;101043.91;;;6.70;74.51
52651;BME280;38537;47.226;39.702;2023-02-28T11:28:31;101038.44;;;6.85;74.25
52651;BME280;38537;47.226;39.702;2023-02-28T11:31:09;101039.75;;;7.14;74.06
52651;BME280;38537;47.226;39.702;2023-02-28T11:34:01;101043.38;;;6.78;73.56
52651;BME280;38537;47.226;39.702;2023-02-28T11:36:51;101022.44;;;6.23;73.53
52651;BME280;38537;47.226;39.702;2023-02-28T11:39:21;101065.31;;;6.42;74.24
52651;BME280;38537;47.226;39.702;2023-02-28T11:42:20;101054.38;;;6.31;75.50
52651;BME280;38537;47.226;39.702;2023-02-28T11:45:19;101040.09;;;6.17;75.89
52651;BME280;38537;47.226;39.702;2023-02-28T11:48:20;101033.09;;;5.82;75.55
52651;BME280;38537;47.226;39.702;2023-02-28T11:51:06;101061.66;;;5.88;76.08
52651;BME280;38537;47.226;39.702;2023-02-28T11:54:02;101060.22;;;5.59;77.47
52651;BME280;38537;47.226;39.702;2023-02-28T11:56:44;101060.94;;;5.49;77.71
52651;BME280;38537;47.226;39.702;2023-02-28T12:02:23;101081.06;;;5.44;78.08
52651;BME280;38537;47.226;39.702;2023-02-28T12:13:47;101082.41;;;5.20;78.52
52651;BME280;38537;47.226;39.702;2023-02-28T12:19:51;101093.81;;;5.24;77.65
52651;BME280;38537;47.226;39.702;2023-02-28T12:25:24;101071.47;;;5.30;78.96
52651;BME280;38537;47.226;39.702;2023-02-28T12:27:57;101071.88;;;5.17;77.83
52651;BME280;38537;47.226;39.702;2023-02-28T12:30:27;101078.88;;;5.25;77.76
52651;BME280;38537;47.226;39.702;2023-02-28T12:33:01;101098.41;;;5.35;78.54
52651;BME280;38537;47.226;39.702;2023-02-28T12:35:47;101062.50;;;5.23;78.27
52651;BME280;38537;47.226;39.702;2023-02-28T12:38:22;101084.81;;;5.33;78.35
52651;BME280;38537;47.226;39.702;2023-02-28T12:43:33;101108.19;;;5.64;77.98
52651;BME280;38537;47.226;39.702;2023-02-28T12:46:22;101118.59;;;5.74;77.80
52651;BME280;38537;47.226;39.702;2023-02-28T12:49:00;101099.88;;;5.42;77.49
52651;BME280;38537;47.226;39.702;2023-02-28T12:51:29;101097.38;;;5.19;77.11
52651;BME280;38537;47.226;39.702;2023-02-28T12:53:58;101111.13;;;5.14;77.37
52651;BME280;38537;47.226;39.702;2023-02-28T13:05:39;101060.03;;;5.05;79.48
52651;BME280;38537;47.226;39.702;2023-02-28T13:08:32;101070.63;;;5.08;79.20
52651;BME280;38537;47.226;39.702;2023-02-28T13:11:05;101071.50;;;4.92;78.51
52651;BME280;38537;47.226;39.702;2023-02-28T13:13:45;101077.53;;;4.89;78.93
52651;BME280;38537;47.226;39.702;2023-02-28T13:16:12;101064.88;;;4.93;79.07
52651;BME280;38537;47.226;39.702;2023-02-28T13:18:43;101076.25;;;4.79;78.97
52651;BME280;38537;47.226;39.702;2023-02-28T13:21:29;101060.78;;;4.62;79.46
52651;BME280;38537;47.226;39.702;2023-02-28T13:24:00;101069.56;;;4.42;79.28
52651;BME280;38537;47.226;39.702;2023-02-28T13:39:50;101075.25;;;4.35;80.04
52651;BME280;38537;47.226;39.702;2023-02-28T13:55:28;101088.22;;;4.35;80.80
52651;BME280;38537;47.226;39.702;2023-02-28T14:00:46;101088.16;;;4.80;80.59
52651;BME280;38537;47.226;39.702;2023-02-28T14:06:23;101108.63;;;4.96;79.60
52651;BME280;38537;47.226;39.702;2023-02-28T14:09:01;101110.41;;;4.68;78.74
52651;BME280;38537;47.226;39.702;2023-02-28T14:11:36;101116.75;;;4.52;79.33
52651;BME280;38537;47.226;39.702;2023-02-28T14:14:05;101107.94;;;4.38;78.46
52651;BME280;38537;47.226;39.702;2023-02-28T14:16:42;101085.22;;;4.20;79.23
52651;BME280;38537;47.226;39.702;2023-02-28T14:19:21;101083.97;;;4.27;79.69
52651;BME280;38537;47.226;39.702;2023-02-28T14:28:12;101099.91;;;3.80;80.74
52651;BME280;38537;47.226;39.702;2023-02-28T14:33:43;101114.56;;;3.81;81.25
52651;BME280;38537;47.226;39.702;2023-02-28T14:36:21;101107.66;;;3.66;81.55
52651;BME280;38537;47.226;39.702;2023-02-28T14:38:52;101105.28;;;3.58;81.24
52651;BME280;38537;47.226;39.702;2023-02-28T14:44:00;101099.31;;;3.38;81.22
52651;BME280;38537;47.226;39.702;2023-02-28T14:46:36;101123.41;;;3.54;82.15
52651;BME280;38537;47.226;39.702;2023-02-28T14:49:17;101100.34;;;3.60;81.99
52651;BME280;38537;47.226;39.702;2023-02-28T14:51:49;101123.69;;;3.81;82.06
52651;BME280;38537;47.226;39.702;2023-02-28T14:54:20;101104.84;;;3.78;81.18
52651;BME280;38537;47.226;39.702;2023-02-28T14:56:51;101093.25;;;3.93;81.45
52651;BME280;38537;47.226;39.702;2023-02-28T15:02:29;101126.66;;;4.20;80.04
52651;BME280;38537;47.226;39.702;2023-02-28T15:05:00;101117.84;;;4.06;79.30
52651;BME280;38537;47.226;39.702;2023-02-28T15:07:28;101113.53;;;3.98;79.47
52651;BME280;38537;47.226;39.702;2023-02-28T15:12:40;101108.75;;;3.94;79.06
52651;BME280;38537;47.226;39.702;2023-02-28T15:15:15;101094.78;;;4.00;79.25